Data for 03/19/2018

Time Sea-Level Adjusted Pressure Absolute Pressure Temperature Relative Humidity Dew Point   
(mb) (inHg) (mb) (inHg) (C) (F) (%) (C) (F)
00:05 1020 30.12 849 25.07 -1.6 29.2 92 -2.7 27.1
00:10 1020 30.12 849 25.07 -1.5 29.3 91 -2.7 27.1
00:15 1020 30.12 849 25.07 -1.6 29.2 92 -2.7 27.1
00:20 1020 30.12 849 25.07 -1.5 29.3 92 -2.6 27.2
00:25 1020 30.12 849 25.07 -1.4 29.5 91 -2.6 27.3
00:30 1020 30.12 849 25.07 -1.5 29.4 91 -2.7 27.1
00:35 1020 30.12 849 25.07 -1.4 29.5 91 -2.6 27.2
00:40 1020 30.12 849 25.07 -1.3 29.7 91 -2.6 27.4
00:45 1020 30.12 849 25.07 -1.2 29.8 91 -2.6 27.4
00:50 1020 30.12 849 25.07 -1.4 29.6 91 -2.7 27.2
00:55 1020 30.12 849 25.07 -1.5 29.3 92 -2.7 27.2
01:00 1020 30.12 849 25.07 -1.5 29.3 92 -2.7 27.2
01:05 1020 30.12 849 25.07 -1.5 29.2 92 -2.7 27.1
01:10 1020 30.12 849 25.07 -1.7 29 92 -2.8 26.9
01:15 1020 30.12 849 25.07 -1.7 28.9 92 -2.8 27
01:20 1020 30.12 849 25.07 -1.7 29 93 -2.7 27.1
01:25 1020 30.12 849 25.07 -1.6 29.1 93 -2.7 27.2
01:30 1020 30.12 849 25.07 -1.5 29.3 93 -2.5 27.5
01:35 1020 30.12 849 25.07 -1.5 29.3 93 -2.5 27.5
01:40 1020 30.12 849 25.07 -1.5 29.4 93 -2.5 27.5
01:45 1020 30.12 849 25.07 -1.5 29.3 93 -2.5 27.5
01:50 1020 30.12 849 25.07 -1.5 29.2 93 -2.6 27.3
01:55 1020 30.12 849 25.07 -1.6 29.1 93 -2.6 27.3
02:00 1020 30.12 849 25.07 -1.5 29.4 93 -2.5 27.5
02:05 1020 30.12 849 25.07 -1.4 29.5 92 -2.5 27.5
02:10 1020 30.12 849 25.07 -1.4 29.5 92 -2.5 27.6
02:15 1020 30.12 849 25.07 -1.3 29.6 92 -2.5 27.5
02:20 1020 30.12 849 25.07 -1.3 29.6 91 -2.5 27.4
02:25 1020 30.12 849 25.07 -1.4 29.6 92 -2.6 27.4
02:30 1020 30.12 849 25.07 -1.4 29.5 91 -2.7 27.2
02:35 1020 30.12 849 25.07 -1.5 29.3 91 -2.8 27
02:40 1020 30.12 849 25.07 -1.4 29.5 91 -2.7 27.1
02:45 1020 30.12 849 25.07 -1.3 29.7 90 -2.6 27.2
02:50 1020 30.12 849 25.07 -1.2 29.8 90 -2.6 27.3
02:55 1020 30.12 849 25.07 -1.2 29.8 90 -2.6 27.3
03:00 1020 30.12 849 25.07 -1.2 29.8 90 -2.6 27.3
03:05 1020 30.12 849 25.07 -1.2 29.8 90 -2.6 27.2
03:10 1020 30.12 849 25.07 -1.3 29.7 90 -2.7 27.1
03:15 1020 30.12 849 25.07 -1.3 29.7 90 -2.7 27.1
03:20 1020 30.12 849 25.07 -1.3 29.7 90 -2.6 27.2
03:25 1020 30.12 849 25.07 -1.2 29.8 90 -2.7 27.2
03:30 1020 30.12 849 25.07 -1.2 29.8 90 -2.7 27.2
03:35 1020 30.12 849 25.07 -1.2 29.8 90 -2.7 27.1
03:40 1020 30.12 849 25.07 -1.2 29.8 90 -2.7 27.2
03:45 1020 30.12 849 25.07 -1.2 29.8 90 -2.7 27.1
03:50 1020 30.12 849 25.07 -1.3 29.7 89 -2.8 27
03:55 1020 30.12 849 25.07 -1.4 29.5 90 -2.9 26.9
04:00 1020 30.12 849 25.07 -1.4 29.5 90 -2.9 26.8
04:05 1020 30.12 849 25.07 -1.6 29.1 91 -2.9 26.7
04:10 1020 30.12 849 25.07 -1.6 29.2 91 -2.9 26.8
04:15 1020 30.12 849 25.07 -1.5 29.3 91 -2.8 26.9
04:20 1020 30.12 849 25.07 -1.5 29.4 91 -2.8 27
04:25 1020 30.12 849 25.07 -1.4 29.5 91 -2.7 27.1
04:30 1020 30.12 849 25.07 -1.4 29.5 90 -2.8 26.9
04:35 1020 30.12 849 25.07 -1.5 29.3 90 -2.9 26.7
04:40 1020 30.12 849 25.07 -1.6 29.1 90 -3 26.6
04:45 1020 30.12 849 25.07 -1.6 29.1 91 -2.9 26.7
04:50 1020 30.12 849 25.07 -1.6 29.1 91 -2.9 26.7
04:55 1020 30.12 849 25.07 -1.6 29.1 91 -3 26.7
05:00 1020 30.12 849 25.07 -1.7 29 91 -3 26.6
05:05 1020 30.12 849 25.07 -1.7 29 91 -3 26.7
05:10 1020 30.12 849 25.07 -1.6 29.1 91 -2.9 26.8
05:15 1020 30.12 849 25.07 -1.5 29.2 91 -2.9 26.8
05:20 1020 30.12 849 25.07 -1.6 29.1 91 -2.9 26.7
05:25 1020 30.12 849 25.07 -1.7 29 91 -3 26.6
05:30 1020 30.12 849 25.07 -1.7 29 91 -2.9 26.7
05:35 1020 30.12 849 25.07 -1.6 29.1 91 -2.9 26.8
05:40 1020 30.12 849 25.07 -1.6 29.2 91 -2.9 26.8
05:45 1020 30.12 849 25.07 -1.5 29.3 91 -2.9 26.8
05:50 1020 30.12 849 25.07 -1.5 29.2 90 -2.9 26.7
05:55 1020 30.12 849 25.07 -1.6 29.2 90 -3 26.7
06:00 1020 30.12 849 25.07 -1.5 29.2 90 -3 26.5
06:05 1020 30.12 849 25.07 -1.6 29.2 90 -3.1 26.5
06:10 1020 30.12 849 25.07 -1.6 29.1 90 -3.1 26.4
06:15 1020 30.12 849 25.07 -1.6 29.1 89 -3.1 26.4
06:20 1020 30.12 849 25.07 -1.8 28.7 89 -3.3 26
06:25 1020 30.12 849 25.07 -2 28.3 90 -3.5 25.8
06:30 1020 30.12 849 25.07 -2.2 28.1 91 -3.5 25.7
06:35 1020 30.12 849 25.07 -2.2 28.1 91 -3.4 25.8
06:40 1020 30.12 849 25.07 -2.1 28.2 91 -3.4 25.9
06:45 1020 30.12 849 25.07 -2.1 28.2 92 -3.3 26.1
06:50 1020 30.12 849 25.07 -2.1 28.3 92 -3.3 26.1
06:55 1020 30.12 849 25.07 -2 28.3 91 -3.2 26.2
07:00 1020 30.12 849 25.07 -2 28.5 91 -3.2 26.2
07:05 1020 30.12 849 25.07 -1.9 28.5 91 -3.2 26.2
07:10 1020 30.12 849 25.07 -1.8 28.8 90 -3.2 26.2
07:15 1020 30.12 849 25.07 -1.8 28.8 90 -3.3 26.1
07:20 1020 30.12 849 25.07 -1.8 28.8 90 -3.3 26.1
07:25 1020 30.12 849 25.07 -1.8 28.7 89 -3.3 26
07:30 1020 30.12 849 25.07 -1.8 28.8 89 -3.3 26
07:35 1020 30.12 849 25.07 -1.7 29 89 -3.2 26.2
07:40 1020 30.12 849 25.07 -1.6 29.2 89 -3.2 26.3
07:45 1020 30.12 849 25.07 -1.1 30 87 -3 26.6
07:50 1020 30.12 849 25.07 -0.8 30.6 84 -3.1 26.5
07:55 1020 30.12 849 25.07 -0.6 30.9 83 -3.1 26.4
08:00 1020 30.12 849 25.07 -0.5 31.1 82 -3.2 26.2
08:05 1020 30.12 849 25.07 -0.4 31.2 82 -3.2 26.3
08:10 1020 30.12 849 25.07 -0.2 31.7 81 -3 26.6
08:15 1020 30.12 849 25.07 -0.2 31.6 82 -2.9 26.8
08:20 1020 30.12 849 25.07 -0.1 31.8 81 -3 26.7
08:25 1020 30.12 849 25.07 0.3 32.6 78 -3.1 26.5
08:30 1020 30.12 849 25.07 0.4 32.8 79 -2.8 27
08:35 1020 30.12 849 25.07 0.9 33.6 73 -3.4 25.9
08:40 1020 30.12 849 25.07 1 33.7 72 -3.5 25.8
08:45 1020 30.12 849 25.07 1.2 34.2 71 -3.5 25.7
08:50 1020 30.12 849 25.07 2.5 36.4 61 -4.2 24.4
08:55 1020 30.12 849 25.07 3.2 37.7 57 -4.6 23.7
09:00 1020 30.12 849 25.07 3.1 37.6 61 -3.8 25.2
09:05 1020 30.12 849 25.07 3.5 38.3 58 -4 24.8
09:10 1020 30.12 849 25.07 3.7 38.7 59 -3.4 25.8
09:15 1020 30.12 849 25.07 3 37.5 64 -3.1 26.3
09:20 1020 30.12 849 25.07 2.4 36.3 64 -3.7 25.3
09:25 1020 30.12 849 25.07 2.7 36.9 60 -4.2 24.5
09:30 1020 30.12 849 25.07 2.9 37.2 59 -4.4 24
09:35 1020 30.12 849 25.07 2.6 36.6 62 -3.9 24.9
09:40 1020 30.12 849 25.07 3 37.4 55 -5.2 22.7
09:45 1020 30.12 849 25.07 3.8 38.8 52 -5.2 22.6
09:50 1020 30.12 849 25.07 4.3 39.8 48 -5.9 21.4
09:55 1020 30.12 849 25.07 4.2 39.6 50 -5.3 22.5
10:00 1020 30.12 849 25.07 4.3 39.7 49 -5.6 21.9
10:05 1020 30.12 849 25.07 4.1 39.5 49 -5.5 22.1
10:10 1020 30.12 849 25.07 3.9 39 50 -5.7 21.8
10:15 1020 30.12 849 25.07 3.4 38 51 -5.8 21.6
10:20 1020 30.12 849 25.07 3.1 37.6 54 -5.2 22.6
10:25 1020 30.12 849 25.07 3.4 38.1 55 -4.8 23.4
10:30 1020 30.12 849 25.07 3.5 38.4 55 -4.6 23.7
10:35 1020 30.12 849 25.07 3.4 38 59 -4 24.9
10:40 1020 30.12 849 25.07 3 37.4 59 -4.2 24.5
10:45 1020 30.12 849 25.07 2.9 37.2 57 -4.7 23.5
10:50 1020 30.12 849 25.07 3.3 38 56 -4.6 23.7
10:55 1020 30.12 849 25.07 3.6 38.4 56 -4.3 24.2
11:00 1020 30.12 849 25.07 3.1 37.5 55 -5 23
11:05 1020 30.12 849 25.07 3 37.3 59 -4.2 24.5
11:10 1020 30.12 849 25.07 3.4 38.2 56 -4.4 24
11:15 1020 30.12 849 25.07 3.2 37.8 57 -4.5 23.9
11:20 1020 30.12 849 25.07 2.5 36.5 63 -3.9 25
11:25 1020 30.12 849 25.07 3.2 37.8 62 -3.4 25.8
11:30 1020 30.12 849 25.07 4.1 39.4 55 -4.2 24.4
11:35 1020 30.12 849 25.07 4.4 40 56 -3.6 25.5
11:40 1020 30.12 849 25.07 3.8 38.9 54 -4.7 23.6
11:45 1020 30.12 849 25.07 3.1 37.5 55 -5.1 22.8
11:50 1020 30.12 849 25.07 3.7 38.6 54 -4.8 23.3
11:55 1020 30.12 849 25.07 4.3 39.7 52 -4.8 23.3
12:00 1020 30.12 849 25.07 3.7 38.7 49 -6.1 21.1
12:05 1020 30.12 849 25.07 3.5 38.2 51 -5.7 21.7
12:10 1020 30.12 849 25.07 4.6 40.2 45 -6.4 20.4
12:15 1020 30.12 849 25.07 4.2 39.6 44 -7.1 19.2
12:20 1020 30.12 849 25.07 3.1 37.6 51 -6 21.2
12:25 1020 30.12 849 25.07 3.1 37.6 45 -7.7 18.2
12:30 1020 30.12 849 25.07 4.3 39.7 41 -7.7 18.1
12:35 1020 30.12 849 25.07 4.7 40.4 41 -7.3 18.8
12:40 1020 30.12 849 25.07 4.8 40.6 41 -7.3 18.8
12:45 1020 30.12 849 25.07 3.8 38.8 46 -6.9 19.5
12:50 1020 30.12 849 25.07 3.5 38.2 45 -7.4 18.7
12:55 1019 30.09 849 25.07 4.6 40.2 44 -6.7 19.9
13:00 1019 30.09 849 25.07 5.1 41.3 42 -6.7 19.9
13:05 1019 30.09 849 25.07 5.9 42.6 40 -6.7 20
13:10 1019 30.09 849 25.07 5.7 42.2 43 -6 21.2
13:15 1019 30.09 849 25.07 5 41 45 -5.9 21.3
13:20 1019 30.09 849 25.07 3.3 37.9 50 -6.1 21
13:25 1019 30.09 849 25.07 4.4 39.9 44 -6.7 19.9
13:30 1019 30.09 848 25.04 4.7 40.5 44 -6.4 20.4
13:35 1019 30.09 848 25.04 4.8 40.6 43 -6.8 19.8
13:40 1019 30.09 848 25.04 5.8 42.5 43 -5.8 21.5
13:45 1019 30.09 848 25.04 5.4 41.7 44 -6 21.3
13:50 1019 30.09 848 25.04 5.3 41.5 41 -6.9 19.6
13:55 1019 30.09 848 25.04 5.3 41.6 44 -6 21.1
14:00 1019 30.09 848 25.04 5.6 42 42 -6.3 20.7
14:05 1019 30.09 848 25.04 5.6 42 40 -7.1 19.2
14:10 1019 30.09 848 25.04 6.3 43.4 39 -6.7 20
14:15 1019 30.09 848 25.04 5.6 42 43 -6.2 20.9
14:20 1019 30.09 848 25.04 6.1 43 38 -7.1 19.2
14:25 1019 30.09 848 25.04 6.4 43.6 40 -6.1 20.9
14:30 1019 30.09 848 25.04 6.5 43.7 37 -7 19.4
14:35 1019 30.09 848 25.04 6.5 43.7 40 -6.3 20.7
14:40 1019 30.09 848 25.04 6.6 43.9 40 -5.9 21.5
14:45 1019 30.09 848 25.04 6.9 44.4 35 -7.4 18.7
14:50 1018 30.06 848 25.04 7.1 44.8 35 -7.2 19
14:55 1018 30.06 848 25.04 6.4 43.5 41 -5.8 21.6
15:00 1018 30.06 848 25.04 5.7 42.3 43 -6 21.2
15:05 1018 30.06 848 25.04 4.8 40.6 45 -6.1 21.1
15:10 1018 30.06 848 25.04 5 40.9 45 -5.9 21.5
15:15 1018 30.06 847 25.01 5.2 41.3 43 -6.5 20.3
15:20 1018 30.06 847 25.01 5.6 42 41 -6.5 20.2
15:25 1018 30.06 847 25.01 5.3 41.6 41 -6.9 19.6
15:30 1018 30.06 847 25.01 5.8 42.4 42 -6.3 20.7
15:35 1018 30.06 847 25.01 5.6 42.1 40 -6.9 19.6
15:40 1018 30.06 847 25.01 6 42.7 38 -7.4 18.7
15:45 1018 30.06 847 25.01 5.4 41.7 38 -7.9 17.8
15:50 1018 30.06 847 25.01 4.9 40.8 39 -8.1 17.4
15:55 1018 30.06 847 25.01 4.9 40.8 37 -8.5 16.8
16:00 1018 30.06 847 25.01 4.5 40.1 41 -7.7 18.1
16:05 1018 30.06 847 25.01 4.9 40.9 39 -7.9 17.8
16:10 1018 30.06 847 25.01 4.4 39.9 43 -7.2 19.1
16:15 1018 30.06 847 25.01 4.2 39.5 41 -7.9 17.8
16:20 1018 30.06 847 25.01 4.3 39.7 38 -8.8 16.2
16:25 1018 30.06 847 25.01 4.7 40.5 38 -8.3 17.1
16:30 1018 30.06 847 25.01 4.7 40.5 39 -8.2 17.3
16:35 1018 30.06 847 25.01 4.5 40 38 -8.5 16.6
16:40 1018 30.06 847 25.01 4.1 39.5 39 -8.5 16.8
16:45 1018 30.06 847 25.01 4.1 39.3 39 -8.8 16.2
16:50 1018 30.06 847 25.01 4.4 39.9 36 -9.5 14.9
16:55 1018 30.06 847 25.01 4.8 40.7 35 -9.4 15
17:00 1018 30.06 847 25.01 4.8 40.6 37 -8.6 16.6
17:05 1018 30.06 847 25.01 4.1 39.4 40 -8.4 16.9
17:10 1018 30.06 847 25.01 3.7 38.7 41 -8.4 16.9
17:15 1018 30.06 847 25.01 3.7 38.6 41 -8.5 16.7
17:20 1017 30.03 847 25.01 3.9 39 40 -8.6 16.6
17:25 1017 30.03 847 25.01 3.9 39 40 -8.4 16.8
17:30 1017 30.03 847 25.01 4 39.2 39 -8.7 16.3
17:35 1017 30.03 847 25.01 4.1 39.3 39 -8.5 16.6
17:40 1018 30.06 847 25.01 4 39.2 41 -8.1 17.5
17:45 1018 30.06 847 25.01 3.4 38.1 40 -8.8 16.1
17:50 1018 30.06 847 25.01 3 37.4 42 -8.8 16.1
17:55 1017 30.03 847 25.01 3.1 37.6 41 -9 15.8
18:00 1017 30.03 847 25.01 2.8 37.1 42 -8.8 16.2
18:05 1017 30.03 847 25.01 2.9 37.3 43 -8.6 16.5
18:10 1017 30.03 847 25.01 2.8 37 42 -9 15.9
18:15 1017 30.03 847 25.01 2.7 36.9 43 -8.7 16.3
18:20 1017 30.03 846 24.98 2.8 37 42 -8.9 16
18:25 1017 30.03 846 24.98 2.8 37 41 -9.1 15.7
18:30 1017 30.03 846 24.98 2.8 37.1 41 -9.2 15.5
18:35 1017 30.03 846 24.98 2.9 37.1 41 -9.3 15.3
18:40 1017 30.03 846 24.98 2.8 37.1 40 -9.4 15.1
18:45 1017 30.03 846 24.98 2.8 37.1 40 -9.5 14.8
18:50 1017 30.03 846 24.98 2.8 37.1 40 -9.4 15.2
18:55 1017 30.03 846 24.98 2.7 36.9 38 -10.1 13.9
19:00 1017 30.03 846 24.98 2.6 36.6 40 -9.8 14.4
19:05 1017 30.03 846 24.98 2.4 36.3 42 -9.2 15.5
19:10 1017 30.03 846 24.98 2.2 35.9 44 -8.9 15.9
19:15 1017 30.03 846 24.98 2.1 35.7 45 -8.7 16.3
19:20 1017 30.03 846 24.98 2.1 35.8 43 -9.2 15.5
19:25 1017 30.03 846 24.98 2 35.6 44 -9.2 15.5
19:30 1017 30.03 846 24.98 2.1 35.8 42 -9.5 14.8
19:35 1017 30.03 846 24.98 2.3 36.1 42 -9.4 15.1
19:40 1017 30.03 847 25.01 2.3 36.1 42 -9.4 15
19:45 1017 30.03 847 25.01 2.2 36 43 -9.2 15.5
19:50 1017 30.03 847 25.01 2.2 36 41 -9.6 14.8
19:55 1017 30.03 847 25.01 2.2 36 42 -9.3 15.2
20:00 1017 30.03 847 25.01 2.2 36 42 -9.4 15.1
20:05 1018 30.06 847 25.01 2.3 36.2 42 -9.2 15.5
20:10 1018 30.06 847 25.01 2.2 36 42 -9.4 15.1
20:15 1018 30.06 847 25.01 2.2 35.9 43 -9.3 15.3
20:20 1018 30.06 847 25.01 2.1 35.8 43 -9.2 15.5
20:25 1018 30.06 847 25.01 2 35.6 43 -9.3 15.2
20:30 1018 30.06 847 25.01 1.9 35.4 44 -9.2 15.4
20:35 1018 30.06 847 25.01 1.8 35.2 44 -9.2 15.5
20:40 1018 30.06 847 25.01 1.8 35.2 44 -9.2 15.5
20:45 1018 30.06 847 25.01 1.8 35.2 44 -9.1 15.5
20:50 1018 30.06 847 25.01 1.8 35.2 43 -9.4 15.2
20:55 1018 30.06 847 25.01 1.8 35.3 41 -10.2 13.6
21:00 1018 30.06 847 25.01 2 35.6 41 -10 14.1
21:05 1018 30.06 847 25.01 1.9 35.5 42 -9.7 14.5
21:10 1018 30.06 847 25.01 1.8 35.3 43 -9.4 15.1
21:15 1018 30.06 847 25.01 1.6 34.9 45 -9.2 15.4
21:20 1018 30.06 847 25.01 1.4 34.5 46 -9 15.8
21:25 1018 30.06 847 25.01 1.3 34.4 47 -8.9 15.9
21:30 1018 30.06 847 25.01 1.3 34.4 47 -8.7 16.3
21:35 1018 30.06 847 25.01 1.3 34.4 47 -8.8 16.1
21:40 1018 30.06 847 25.01 1.3 34.3 47 -8.7 16.3
21:45 1018 30.06 847 25.01 1.1 34 48 -8.8 16.2
21:50 1018 30.06 847 25.01 0.9 33.5 48 -8.8 16.1
21:55 1018 30.06 847 25.01 0.8 33.5 49 -8.6 16.5
22:00 1018 30.06 847 25.01 0.9 33.6 50 -8.3 17.1
22:05 1018 30.06 847 25.01 0.8 33.5 51 -8.2 17.3
22:10 1018 30.06 847 25.01 0.8 33.5 52 -8.1 17.5
22:15 1018 30.06 847 25.01 0.8 33.5 51 -8.3 17.1
22:20 1018 30.06 847 25.01 0.9 33.6 51 -8.2 17.2
22:25 1018 30.06 847 25.01 0.8 33.4 52 -8.1 17.4
22:30 1018 30.06 847 25.01 0.7 33.2 51 -8.4 16.9
22:35 1018 30.06 847 25.01 0.7 33.2 51 -8.3 17.1
22:40 1018 30.06 847 25.01 0.6 33.1 52 -8.3 17.1
22:45 1018 30.06 847 25.01 0.5 32.8 52 -8.4 16.9
22:50 1018 30.06 847 25.01 0.6 33 51 -8.5 16.8
22:55 1018 30.06 847 25.01 0.6 33.1 51 -8.5 16.8
23:00 1018 30.06 847 25.01 0.5 33 52 -8.2 17.2
23:05 1018 30.06 847 25.01 0.4 32.7 52 -8.5 16.8
23:10 1018 30.06 847 25.01 0.1 32.2 53 -8.5 16.8
23:15 1018 30.06 847 25.01 -0 32 53 -8.5 16.7
23:20 1018 30.06 847 25.01 0.1 32.1 53 -8.3 17
23:25 1018 30.06 847 25.01 0 32 54 -8.2 17.3
23:30 1018 30.06 847 25.01 -0 32 54 -8.1 17.3
23:35 1018 30.06 847 25.01 -0.1 31.8 55 -8 17.6
23:40 1018 30.06 847 25.01 -0.2 31.6 56 -7.9 17.7
23:45 1018 30.06 847 25.01 -0.4 31.3 57 -7.8 17.9
23:50 1018 30.06 847 25.01 -0.5 31 57 -8 17.7
23:55 1018 30.06 847 25.01 -0.6 31 57 -8 17.5
24:00 1018 30.06 847 25.01 -0.5 31 57 -8.1 17.4